createdAt,value
2017-11-05T00:00:34.795Z,93.90
2017-11-05T00:03:07.103Z,93.80
2017-11-05T00:05:38.582Z,93.90
2017-11-05T00:08:15.037Z,93.80
2017-11-05T00:10:48.175Z,94.00
2017-11-05T00:13:18.472Z,94.00
2017-11-05T00:15:49.799Z,94.20
2017-11-05T00:18:17.998Z,94.00
2017-11-05T00:20:52.326Z,93.90
2017-11-05T00:23:20.985Z,94.10
2017-11-05T00:25:54.605Z,93.80
2017-11-05T00:28:25.154Z,93.40
2017-11-05T00:30:57.526Z,93.10
2017-11-05T00:33:27.858Z,93.10
2017-11-05T00:35:58.437Z,93.30
2017-11-05T00:38:28.123Z,93.70
2017-11-05T00:40:57.043Z,93.60
2017-11-05T00:43:26.133Z,94.70
2017-11-05T00:45:54.081Z,95.70
2017-11-05T00:48:31.034Z,96.20
2017-11-05T00:51:00.010Z,96.90
2017-11-05T00:53:27.424Z,98.30
2017-11-05T00:55:57.215Z,98.20
2017-11-05T00:58:27.349Z,98.30
2017-11-05T01:00:57.616Z,98.60
2017-11-05T01:03:28.298Z,98.60
2017-11-05T01:05:58.649Z,98.30
2017-11-05T01:08:30.249Z,98.20
2017-11-05T01:11:00.860Z,97.10
2017-11-05T01:13:30.963Z,96.00
2017-11-05T01:16:00.121Z,95.90
2017-11-05T01:18:28.643Z,95.90
2017-11-05T01:20:58.056Z,96.00
2017-11-05T01:23:25.080Z,96.00
2017-11-05T01:25:53.975Z,95.70
2017-11-05T01:28:22.393Z,95.50
2017-11-05T01:30:50.473Z,95.30
2017-11-05T01:33:18.105Z,95.00
2017-11-05T01:35:47.634Z,94.90
2017-11-05T01:38:15.920Z,94.90
2017-11-05T01:40:44.197Z,94.70
2017-11-05T01:43:12.570Z,94.60
2017-11-05T01:45:40.345Z,94.40
2017-11-05T01:48:08.813Z,94.40
2017-11-05T01:50:38.014Z,95.00
2017-11-05T01:53:07.293Z,94.90
2017-11-05T01:55:35.488Z,94.90
2017-11-05T01:58:03.952Z,94.90
2017-11-05T02:00:31.374Z,94.80
2017-11-05T02:02:59.303Z,94.80
2017-11-05T02:05:27.157Z,94.70
2017-11-05T02:07:54.716Z,94.80
2017-11-05T02:10:22.699Z,94.70
2017-11-05T02:12:50.880Z,94.90
2017-11-05T02:15:18.816Z,94.80
2017-11-05T02:17:46.856Z,94.80
2017-11-05T02:20:15.709Z,95.00
2017-11-05T02:22:44.392Z,95.70
2017-11-05T02:25:12.954Z,96.30
2017-11-05T02:27:40.004Z,96.80
2017-11-05T02:30:09.578Z,97.10
2017-11-05T02:32:37.402Z,97.00
2017-11-05T02:35:05.513Z,97.10
2017-11-05T02:37:33.946Z,97.90
2017-11-05T02:40:02.638Z,97.90
2017-11-05T02:42:30.846Z,98.50
2017-11-05T02:44:58.793Z,98.70
2017-11-05T02:47:27.223Z,99.10
2017-11-05T02:49:55.528Z,99.30
2017-11-05T02:52:25.343Z,99.40
2017-11-05T02:54:53.913Z,99.10
2017-11-05T02:57:21.932Z,99.10
2017-11-05T02:59:49.335Z,99.10
2017-11-05T03:02:17.360Z,99.40
2017-11-05T03:04:46.335Z,99.40
2017-11-05T03:07:14.049Z,99.40
2017-11-05T03:09:42.076Z,99.60
2017-11-05T03:12:09.135Z,99.90
2017-11-05T03:14:37.176Z,99.80
2017-11-05T03:17:05.148Z,99.90
2017-11-05T03:19:33.245Z,99.90
2017-11-05T03:22:01.614Z,99.80
2017-11-05T03:24:29.771Z,99.80
2017-11-05T03:26:58.910Z,99.90
2017-11-05T03:29:27.061Z,99.90
2017-11-05T03:31:55.733Z,99.90
2017-11-05T03:34:23.805Z,99.90
2017-11-05T03:36:51.621Z,99.90
2017-11-05T03:39:19.900Z,99.90
2017-11-05T03:41:46.897Z,99.90
2017-11-05T03:44:15.688Z,99.90
2017-11-05T03:46:43.520Z,99.90
2017-11-05T03:49:11.626Z,99.90
2017-11-05T03:51:39.757Z,99.90
2017-11-05T03:54:09.348Z,99.90
2017-11-05T03:56:37.738Z,99.90
2017-11-05T03:59:06.433Z,99.90
2017-11-05T04:01:34.755Z,99.90
2017-11-05T04:04:03.563Z,99.90
2017-11-05T04:06:32.297Z,99.90
2017-11-05T04:09:00.235Z,99.90
2017-11-05T04:11:27.877Z,99.90
2017-11-05T04:13:55.868Z,99.90
2017-11-05T04:16:23.761Z,99.90
2017-11-05T04:18:51.368Z,99.90
2017-11-05T04:21:19.548Z,99.90
2017-11-05T04:23:48.069Z,99.80
2017-11-05T04:26:16.204Z,99.70
2017-11-05T04:28:45.400Z,99.80
2017-11-05T04:31:14.319Z,99.90
2017-11-05T04:33:42.179Z,99.90
2017-11-05T04:36:11.500Z,99.90
2017-11-05T04:38:40.459Z,99.90
2017-11-05T04:41:09.560Z,99.90
2017-11-05T04:43:37.421Z,99.90
2017-11-05T04:46:05.907Z,99.90
2017-11-05T04:48:34.031Z,99.90
2017-11-05T04:51:02.403Z,99.90
2017-11-05T04:53:30.365Z,99.90
2017-11-05T04:55:58.179Z,99.90
2017-11-05T04:58:26.479Z,99.90
2017-11-05T05:00:54.651Z,99.90
2017-11-05T05:03:23.137Z,99.90
2017-11-05T05:05:51.508Z,99.90
2017-11-05T05:08:20.209Z,99.90
2017-11-05T05:10:49.224Z,99.90
2017-11-05T05:13:17.479Z,99.90
2017-11-05T05:15:45.748Z,99.90
2017-11-05T05:18:14.490Z,99.90
2017-11-05T05:20:42.757Z,99.90
2017-11-05T05:23:11.778Z,99.90
2017-11-05T05:25:39.865Z,99.90
2017-11-05T05:28:12.946Z,99.90
2017-11-05T05:30:53.241Z,99.90
2017-11-05T05:33:21.709Z,99.90
2017-11-05T05:35:49.899Z,99.90
2017-11-05T05:38:18.504Z,99.90
2017-11-05T05:40:45.532Z,99.90
2017-11-05T05:43:13.262Z,99.90
2017-11-05T05:45:42.073Z,99.90
2017-11-05T05:48:09.124Z,99.90
2017-11-05T05:50:36.166Z,99.90
2017-11-05T05:53:03.161Z,99.90
2017-11-05T05:55:30.237Z,99.90
2017-11-05T05:57:57.284Z,99.90
2017-11-05T06:00:24.289Z,99.90
2017-11-05T06:02:52.102Z,99.90
2017-11-05T06:05:19.121Z,99.90
2017-11-05T06:07:46.150Z,99.90
2017-11-05T06:10:13.141Z,99.90
2017-11-05T06:12:40.261Z,99.90
2017-11-05T06:15:07.269Z,99.90
2017-11-05T06:17:34.308Z,99.90
2017-11-05T06:20:01.345Z,99.90
2017-11-05T06:22:28.442Z,99.90
2017-11-05T06:24:55.432Z,99.90
2017-11-05T06:27:22.507Z,99.90
2017-11-05T06:29:49.647Z,99.90
2017-11-05T06:32:16.651Z,99.90
2017-11-05T06:34:43.629Z,99.90
2017-11-05T06:37:10.693Z,99.90
2017-11-05T06:39:37.704Z,99.90
2017-11-05T06:42:04.961Z,99.90
2017-11-05T06:44:32.046Z,99.90
2017-11-05T06:46:59.044Z,99.90
2017-11-05T06:49:28.634Z,99.90
2017-11-05T06:51:55.688Z,99.90
2017-11-05T06:54:23.175Z,99.90
2017-11-05T06:56:51.049Z,99.90
2017-11-05T06:59:19.763Z,99.90
2017-11-05T07:01:46.852Z,99.90
2017-11-05T07:04:19.740Z,99.90
2017-11-05T07:06:49.238Z,99.90
2017-11-05T07:09:16.784Z,99.90
2017-11-05T07:11:44.239Z,99.90
2017-11-05T07:14:13.671Z,99.90
2017-11-05T07:16:40.816Z,99.90
2017-11-05T07:19:08.865Z,99.90
2017-11-05T07:21:36.295Z,99.90
2017-11-05T07:24:03.378Z,99.90
2017-11-05T07:26:31.224Z,99.70
2017-11-05T07:29:00.066Z,99.70
2017-11-05T07:31:28.533Z,99.90
2017-11-05T07:34:03.031Z,99.90
2017-11-05T07:36:33.651Z,99.90
2017-11-05T07:39:03.537Z,99.90
2017-11-05T07:41:31.530Z,99.80
2017-11-05T07:44:00.955Z,99.30
2017-11-05T07:46:28.024Z,99.20
2017-11-05T07:48:55.484Z,99.00
2017-11-05T07:51:22.829Z,99.00
2017-11-05T07:53:50.420Z,99.20
2017-11-05T07:56:18.563Z,99.00
2017-11-05T07:58:50.419Z,99.00
2017-11-05T08:01:18.677Z,99.10
2017-11-05T08:03:45.762Z,99.10
2017-11-05T08:06:13.583Z,99.00
2017-11-05T08:08:43.914Z,99.10
2017-11-05T08:11:16.576Z,99.10
2017-11-05T08:13:55.446Z,98.80
2017-11-05T08:16:30.459Z,98.90
2017-11-05T08:18:58.366Z,98.80
2017-11-05T08:21:25.628Z,99.00
2017-11-05T08:23:56.480Z,99.30
2017-11-05T08:26:27.591Z,99.40
2017-11-05T08:28:56.750Z,99.40
2017-11-05T08:31:25.321Z,99.20
2017-11-05T08:33:54.912Z,99.10
2017-11-05T08:36:23.544Z,99.80
2017-11-05T08:38:51.395Z,99.50
2017-11-05T08:43:59.397Z,98.90
2017-11-05T08:46:27.437Z,99.00
2017-11-05T08:48:57.385Z,99.00
2017-11-05T08:51:25.424Z,99.40
2017-11-05T08:53:54.407Z,99.20
2017-11-05T08:56:22.806Z,99.30
2017-11-05T08:58:51.058Z,99.30
2017-11-05T09:01:20.545Z,98.80
2017-11-05T09:03:52.821Z,98.80
2017-11-05T09:06:21.131Z,99.00
2017-11-05T09:08:49.236Z,98.50
2017-11-05T09:11:16.866Z,95.70
2017-11-05T09:13:44.543Z,95.30
2017-11-05T09:16:13.573Z,96.00
2017-11-05T09:18:41.616Z,96.00
2017-11-05T09:21:09.685Z,96.50
2017-11-05T09:23:37.528Z,96.60
2017-11-05T09:26:06.483Z,96.10
2017-11-05T09:28:34.950Z,95.70
2017-11-05T09:31:02.028Z,95.40
2017-11-05T09:33:31.106Z,95.10
2017-11-05T09:35:59.775Z,94.80
2017-11-05T09:38:29.317Z,94.30
2017-11-05T09:40:58.888Z,94.30
2017-11-05T09:43:26.854Z,94.90
2017-11-05T09:45:54.933Z,94.90
2017-11-05T09:48:23.732Z,95.20
2017-11-05T09:50:52.532Z,95.30
2017-11-05T09:53:24.390Z,95.30
2017-11-05T09:55:52.949Z,96.00
2017-11-05T09:58:20.957Z,95.80
2017-11-05T10:00:50.085Z,95.50
2017-11-05T10:03:19.071Z,95.70
2017-11-05T10:05:47.620Z,96.10
2017-11-05T10:08:16.587Z,96.10
2017-11-05T10:10:45.303Z,96.10
2017-11-05T10:13:14.153Z,95.70
2017-11-05T10:15:43.071Z,95.70
2017-11-05T10:18:11.594Z,95.60
2017-11-05T10:20:39.850Z,94.90
2017-11-05T10:23:08.125Z,95.20
2017-11-05T10:25:36.125Z,94.90
2017-11-05T10:28:04.655Z,94.40
2017-11-05T10:30:32.558Z,94.90
2017-11-05T10:33:00.430Z,94.40
2017-11-05T10:35:31.917Z,94.70
2017-11-05T10:38:04.040Z,94.70
2017-11-05T10:40:32.576Z,94.50
2017-11-05T10:43:02.939Z,94.50
2017-11-05T10:45:32.279Z,94.70
2017-11-05T10:48:01.289Z,94.60
2017-11-05T10:50:30.473Z,94.70
2017-11-05T10:52:59.268Z,94.70
2017-11-05T10:55:27.350Z,95.30
2017-11-05T10:57:56.539Z,95.10
2017-11-05T11:00:30.826Z,94.60
2017-11-05T11:02:59.820Z,94.20
2017-11-05T11:05:29.252Z,94.60
2017-11-05T11:07:58.933Z,94.60
2017-11-05T11:10:29.080Z,94.60
2017-11-05T11:12:57.705Z,94.20
2017-11-05T11:15:26.219Z,94.50
2017-11-05T11:17:55.474Z,93.60
2017-11-05T11:20:23.627Z,93.00
2017-11-05T11:22:51.432Z,93.00
2017-11-05T11:25:19.033Z,92.90
2017-11-05T11:27:46.444Z,93.20
2017-11-05T11:30:19.836Z,93.10
2017-11-05T11:32:57.725Z,93.10
2017-11-05T11:35:26.497Z,93.20
2017-11-05T11:37:55.106Z,93.00
2017-11-05T11:40:24.328Z,93.00
2017-11-05T11:42:51.601Z,93.00
2017-11-05T11:45:19.774Z,92.50
2017-11-05T11:47:48.351Z,92.80
2017-11-05T11:50:16.057Z,93.10
2017-11-05T11:52:45.036Z,92.90
2017-11-05T11:55:13.334Z,92.90
2017-11-05T11:57:42.783Z,93.30
2017-11-05T12:00:11.208Z,93.50
2017-11-05T12:02:39.642Z,93.80
2017-11-05T12:05:11.327Z,93.80
2017-11-05T12:07:40.212Z,93.80
2017-11-05T12:10:12.707Z,93.50
2017-11-05T12:12:40.873Z,93.50
2017-11-05T12:15:10.970Z,93.90
2017-11-05T12:17:39.301Z,93.90
2017-11-05T12:20:10.689Z,93.80
2017-11-05T12:22:40.843Z,93.70
2017-11-05T12:25:09.779Z,93.40
2017-11-05T12:27:38.860Z,93.60
2017-11-05T12:30:07.328Z,93.60
2017-11-05T12:32:35.178Z,93.50
2017-11-05T12:35:04.394Z,93.50
2017-11-05T12:37:34.723Z,93.40
2017-11-05T12:40:02.944Z,93.10
2017-11-05T12:42:31.456Z,93.00
2017-11-05T12:45:00.595Z,93.50
2017-11-05T12:47:28.612Z,93.50
2017-11-05T12:49:56.366Z,93.30
2017-11-05T12:52:24.491Z,93.10
2017-11-05T12:54:53.366Z,93.10
2017-11-05T12:57:22.590Z,92.70
2017-11-05T12:59:51.204Z,92.20
2017-11-05T13:02:19.724Z,91.80
2017-11-05T13:04:48.523Z,92.00
2017-11-05T13:07:17.682Z,91.50
2017-11-05T13:09:46.285Z,91.20
2017-11-05T13:12:17.964Z,91.00
2017-11-05T13:14:47.106Z,90.50
2017-11-05T13:17:16.205Z,90.60
2017-11-05T13:19:44.733Z,90.70
2017-11-05T13:22:13.246Z,90.70
2017-11-05T13:24:41.994Z,90.60
2017-11-05T13:27:10.882Z,90.40
2017-11-05T13:29:40.241Z,90.70
2017-11-05T13:32:09.618Z,91.20
2017-11-05T13:34:39.166Z,91.00
2017-11-05T13:37:08.843Z,90.90
2017-11-05T13:39:37.495Z,90.70
2017-11-05T13:42:05.266Z,90.40
2017-11-05T13:44:33.715Z,90.30
2017-11-05T13:47:03.447Z,89.00
2017-11-05T13:49:30.942Z,89.00
2017-11-05T13:52:11.265Z,89.60
2017-11-05T13:54:39.738Z,88.70
2017-11-05T13:57:08.991Z,87.90
2017-11-05T13:59:43.450Z,88.70
2017-11-05T14:02:21.112Z,89.10
2017-11-05T14:04:51.289Z,88.70
2017-11-05T14:07:19.962Z,88.80
2017-11-05T14:09:49.037Z,88.30
2017-11-05T14:12:16.770Z,89.20
2017-11-05T14:14:46.024Z,88.10
2017-11-05T14:17:14.714Z,88.30
2017-11-05T14:19:43.672Z,88.30
2017-11-05T14:22:11.489Z,88.20
2017-11-05T14:24:40.172Z,88.50
2017-11-05T14:27:08.612Z,88.40
2017-11-05T14:29:36.810Z,88.90
2017-11-05T14:32:05.720Z,89.10
2017-11-05T14:34:33.782Z,89.00
2017-11-05T14:37:02.165Z,89.00
2017-11-05T14:39:29.673Z,90.20
2017-11-05T14:41:59.328Z,90.10
2017-11-05T14:44:28.294Z,90.10
2017-11-05T14:46:56.391Z,90.10
2017-11-05T14:49:25.171Z,90.60
2017-11-05T14:51:53.501Z,90.20
2017-11-05T14:54:21.417Z,90.20
2017-11-05T14:56:50.012Z,90.50
2017-11-05T14:59:17.977Z,90.40
2017-11-05T15:01:46.349Z,90.90
2017-11-05T15:04:18.018Z,90.60
2017-11-05T15:06:52.804Z,90.50
2017-11-05T15:09:21.560Z,90.40
2017-11-05T15:11:50.289Z,90.60
2017-11-05T15:14:20.587Z,90.60
2017-11-05T15:16:48.795Z,90.50
2017-11-05T15:19:17.296Z,90.70
2017-11-05T15:21:45.913Z,90.70
2017-11-05T15:24:21.372Z,90.40
2017-11-05T15:26:55.527Z,90.50
2017-11-05T15:29:30.907Z,90.50
2017-11-05T15:31:59.396Z,90.50
2017-11-05T15:34:37.612Z,90.90
2017-11-05T15:37:09.429Z,90.80
2017-11-05T15:39:42.941Z,90.70
2017-11-05T15:42:14.814Z,90.70
2017-11-05T15:44:44.741Z,90.80
2017-11-05T15:47:15.462Z,91.00
2017-11-05T15:49:47.091Z,90.90
2017-11-05T15:52:21.690Z,91.20
2017-11-05T15:54:49.784Z,91.00
2017-11-05T16:00:06.375Z,91.90
2017-11-05T16:02:41.746Z,91.90
2017-11-05T16:05:19.249Z,91.70
2017-11-05T16:08:00.143Z,92.10
2017-11-05T16:10:38.838Z,91.80
2017-11-05T16:13:10.738Z,92.00
2017-11-05T16:15:40.079Z,91.90
2017-11-05T16:18:18.159Z,91.90
2017-11-05T16:20:46.364Z,92.10
2017-11-05T16:23:19.589Z,92.30
2017-11-05T16:25:48.772Z,92.10
2017-11-05T16:28:17.664Z,92.00
2017-11-05T16:30:47.730Z,92.10
2017-11-05T16:33:15.930Z,92.20
2017-11-05T16:35:45.206Z,92.10
2017-11-05T16:38:14.242Z,92.20
2017-11-05T16:40:42.169Z,92.20
2017-11-05T16:43:10.343Z,92.20
2017-11-05T16:45:38.537Z,92.20
2017-11-05T16:48:06.908Z,92.30
2017-11-05T16:50:34.932Z,92.30
2017-11-05T16:53:03.474Z,92.40
2017-11-05T16:55:35.131Z,92.30
2017-11-05T16:58:05.749Z,92.20
2017-11-05T17:00:34.538Z,92.30
2017-11-05T17:03:06.732Z,92.30
2017-11-05T17:05:42.572Z,92.10
2017-11-05T17:08:23.430Z,92.10
2017-11-05T17:11:02.466Z,91.90
2017-11-05T17:13:34.161Z,92.60
2017-11-05T17:16:05.719Z,92.30
2017-11-05T17:18:46.494Z,92.20
2017-11-05T17:21:17.654Z,92.10
2017-11-05T17:23:47.295Z,92.00
2017-11-05T17:26:15.549Z,92.10
2017-11-05T17:28:45.336Z,92.20
2017-11-05T17:31:13.713Z,92.00
2017-11-05T17:33:43.083Z,91.70
2017-11-05T17:36:12.304Z,91.70
2017-11-05T17:38:41.369Z,91.80
2017-11-05T17:41:10.056Z,91.40
2017-11-05T17:43:38.889Z,91.50
2017-11-05T17:46:07.115Z,91.50
2017-11-05T17:48:36.378Z,91.70
2017-11-05T17:51:04.704Z,91.60
2017-11-05T17:53:32.812Z,91.80
2017-11-05T17:56:01.699Z,91.80
2017-11-05T17:58:30.101Z,91.50
2017-11-05T18:00:57.516Z,91.60
2017-11-05T18:03:27.202Z,91.90
2017-11-05T18:05:55.451Z,91.60
2017-11-05T18:08:23.781Z,91.60
2017-11-05T18:10:52.232Z,91.00
2017-11-05T18:13:19.533Z,91.30
2017-11-05T18:15:47.423Z,90.80
2017-11-05T18:18:15.656Z,90.50
2017-11-05T18:20:44.331Z,90.10
2017-11-05T18:23:11.692Z,90.00
2017-11-05T18:25:40.419Z,89.30
2017-11-05T18:28:08.318Z,89.90
2017-11-05T18:30:35.588Z,90.20
2017-11-05T18:33:03.413Z,90.20
2017-11-05T18:35:31.273Z,90.30
2017-11-05T18:37:59.701Z,90.20
2017-11-05T18:40:40.582Z,89.90
2017-11-05T18:43:14.181Z,90.10
2017-11-05T18:45:53.484Z,90.10
2017-11-05T18:48:30.175Z,90.00
2017-11-05T18:51:04.987Z,90.10
2017-11-05T18:56:18.473Z,90.10
2017-11-05T18:58:55.681Z,90.00
2017-11-05T19:01:31.140Z,89.80
2017-11-05T19:06:49.146Z,89.20
2017-11-05T19:09:25.511Z,89.70
2017-11-05T19:11:57.191Z,89.50
2017-11-05T19:14:35.468Z,89.50
2017-11-05T19:19:55.374Z,88.60
2017-11-05T19:22:24.521Z,88.40
2017-11-05T19:24:52.680Z,88.60
2017-11-05T19:27:20.402Z,88.90
2017-11-05T19:29:48.302Z,89.50
2017-11-05T19:32:16.338Z,88.70
2017-11-05T19:34:45.029Z,88.70
2017-11-05T19:37:13.066Z,88.70
2017-11-05T19:39:41.282Z,88.50
2017-11-05T19:42:09.544Z,89.10
2017-11-05T19:44:38.276Z,88.40
2017-11-05T19:47:05.994Z,88.40
2017-11-05T19:49:34.092Z,88.10
2017-11-05T19:52:01.694Z,88.40
2017-11-05T19:54:30.725Z,88.10
2017-11-05T19:56:59.122Z,88.40
2017-11-05T19:59:27.454Z,88.60
2017-11-05T20:01:55.762Z,89.00
2017-11-05T20:04:24.453Z,89.00
2017-11-05T20:06:51.897Z,88.60
2017-11-05T20:09:21.774Z,88.60
2017-11-05T20:11:49.711Z,88.40
2017-11-05T20:14:17.347Z,88.50
2017-11-05T20:16:48.013Z,87.70
2017-11-05T20:19:18.548Z,87.60
2017-11-05T20:21:46.855Z,88.00
2017-11-05T20:24:14.453Z,87.20
2017-11-05T20:26:43.674Z,87.50
2017-11-05T20:29:14.191Z,87.40
2017-11-05T20:31:45.027Z,88.20
2017-11-05T20:34:14.750Z,87.90
2017-11-05T20:36:43.859Z,87.90
2017-11-05T20:39:15.357Z,87.90
2017-11-05T20:41:44.273Z,88.70
2017-11-05T20:44:12.591Z,88.40
2017-11-05T20:46:41.434Z,89.10
2017-11-05T20:49:10.767Z,89.50
2017-11-05T20:51:40.150Z,90.50
2017-11-05T20:54:08.825Z,90.70
2017-11-05T20:56:37.214Z,91.00
2017-11-05T20:59:05.072Z,91.20
2017-11-05T21:01:33.440Z,90.80
2017-11-05T21:04:04.361Z,90.80
2017-11-05T21:06:35.103Z,90.70
2017-11-05T21:09:03.627Z,90.90
2017-11-05T21:11:31.155Z,90.50
2017-11-05T21:13:59.380Z,90.10
2017-11-05T21:16:27.561Z,89.40
2017-11-05T21:18:57.434Z,89.60
2017-11-05T21:21:26.324Z,89.00
2017-11-05T21:23:55.623Z,89.60
2017-11-05T21:26:25.336Z,90.00
2017-11-05T21:28:55.825Z,89.20
2017-11-05T21:31:25.424Z,89.50
2017-11-05T21:33:55.190Z,89.60
2017-11-05T21:36:23.286Z,89.30
2017-11-05T21:38:51.137Z,89.10
2017-11-05T21:41:19.127Z,88.80
2017-11-05T21:43:51.163Z,88.60
2017-11-05T21:46:20.392Z,88.50
2017-11-05T21:48:49.064Z,88.80
2017-11-05T21:51:21.147Z,89.10
2017-11-05T21:53:50.381Z,89.10
2017-11-05T21:56:18.486Z,88.90
2017-11-05T21:58:51.310Z,90.00
2017-11-05T22:01:26.205Z,88.90
2017-11-05T22:03:57.040Z,89.00
2017-11-05T22:06:26.365Z,89.00
2017-11-05T22:08:56.251Z,89.30
2017-11-05T22:11:28.674Z,89.30
2017-11-05T22:13:56.452Z,89.40
2017-11-05T22:16:25.597Z,89.30
2017-11-05T22:18:53.730Z,89.50
2017-11-05T22:21:22.726Z,89.80
2017-11-05T22:23:52.170Z,89.70
2017-11-05T22:26:23.048Z,89.70
2017-11-05T22:28:50.942Z,89.70
2017-11-05T22:31:20.013Z,89.60
2017-11-05T22:33:47.562Z,89.50
2017-11-05T22:36:15.333Z,89.70
2017-11-05T22:38:43.104Z,89.50
2017-11-05T22:41:10.298Z,89.30
2017-11-05T22:43:37.704Z,89.60
2017-11-05T22:46:05.165Z,89.60
2017-11-05T22:48:32.649Z,89.10
2017-11-05T22:51:00.377Z,89.10
2017-11-05T22:53:28.431Z,89.00
2017-11-05T22:55:55.828Z,89.40
2017-11-05T22:58:24.213Z,89.70
2017-11-05T23:00:51.641Z,89.30
2017-11-05T23:03:19.052Z,90.00
2017-11-05T23:05:46.934Z,89.50
2017-11-05T23:08:14.558Z,89.60
2017-11-05T23:10:42.303Z,89.00
2017-11-05T23:13:11.803Z,89.40
2017-11-05T23:15:39.249Z,89.00
2017-11-05T23:18:06.644Z,89.80
2017-11-05T23:20:37.117Z,88.50
2017-11-05T23:23:06.913Z,89.10
2017-11-05T23:25:34.558Z,88.70
2017-11-05T23:28:01.796Z,88.80
2017-11-05T23:30:29.431Z,88.90
2017-11-05T23:32:56.869Z,89.30
2017-11-05T23:35:24.332Z,89.00
2017-11-05T23:37:51.458Z,89.30
2017-11-05T23:40:18.775Z,88.70
2017-11-05T23:42:46.153Z,89.10
2017-11-05T23:45:13.590Z,88.80
2017-11-05T23:47:41.696Z,88.70
2017-11-05T23:50:09.189Z,88.60
2017-11-05T23:52:36.540Z,88.90
2017-11-05T23:55:03.901Z,88.20
2017-11-05T23:57:31.727Z,89.20
2017-11-05T23:59:59.053Z,89.50
